Terminal Aerodrome Forecast
Issued by NWS

Home | Current Version | Previous Version | Text Only | Print | Product List | Glossary On
Versions: 1 2 3 4 5 6 7 8 9 10 11 12 13 14 15 16 17 18 19
000
FTUS45 KABQ 311131
TAFLVS
TAF
KLVS 311131Z 3112/0112 VRB04KT P6SM VCSH FEW020 SCT040 BKN120
      TEMPO 3112/3115 4SM BR SCT012 OVC015
     FM311800 14008KT P6SM VCSH FEW035 BKN050
     FM312030 14010G16KT P6SM VCTS SCT045CB BKN070
     FM312300 15010KT P6SM VCSH SCT045 BKN070
     FM010300 12006KT P6SM SCT040 BKN090
     FM010900 VRB05KT P6SM SCT020 BKN030=

USA.gov is the U.S. government's official web portal to all federal, state and local government web resources and services.